createdAt,value
2022-12-01T00:00:32.172Z,14.05
2022-12-01T00:03:37.122Z,15.52
2022-12-01T00:06:42.320Z,14.82
2022-12-01T00:10:04.320Z,14.87
2022-12-01T00:13:07.482Z,14.30
2022-12-01T00:16:13.273Z,11.23
2022-12-01T00:19:16.570Z,9.00
2022-12-01T00:22:20.041Z,7.20
2022-12-01T00:25:23.050Z,6.30
2022-12-01T00:28:26.695Z,12.68
2022-12-01T00:31:29.788Z,8.35
2022-12-01T00:34:34.190Z,12.45
2022-12-01T00:37:39.316Z,12.05
2022-12-01T00:40:43.160Z,10.50
2022-12-01T00:43:46.719Z,10.02
2022-12-01T00:46:50.536Z,10.77
2022-12-01T00:49:54.049Z,11.43
2022-12-01T00:52:57.499Z,11.82
2022-12-01T00:56:01.177Z,12.18
2022-12-01T00:59:04.484Z,9.25
2022-12-01T01:02:08.447Z,9.05
2022-12-01T01:05:12.285Z,7.82
2022-12-01T01:08:15.647Z,8.18
2022-12-01T01:11:21.132Z,7.20
2022-12-01T01:14:24.841Z,6.35
2022-12-01T01:17:28.556Z,5.82
2022-12-01T01:20:32.154Z,5.62
2022-12-01T01:23:36.960Z,4.45
2022-12-01T01:26:39.896Z,8.95
2022-12-01T01:29:44.027Z,9.30
2022-12-01T01:32:47.378Z,9.13
2022-12-01T01:35:51.377Z,12.15
2022-12-01T01:38:55.409Z,11.50
2022-12-01T01:41:58.812Z,9.27
2022-12-01T01:45:02.130Z,8.85
2022-12-01T01:48:05.951Z,7.20
2022-12-01T01:51:09.685Z,6.50
2022-12-01T01:57:29.781Z,4.68
2022-12-01T02:00:33.606Z,4.35
2022-12-01T02:03:39.399Z,3.80
2022-12-01T02:09:48.462Z,3.30
2022-12-01T02:13:10.539Z,3.03
2022-12-01T02:16:43.138Z,3.37
2022-12-01T02:20:14.036Z,2.83
2022-12-01T02:23:41.507Z,3.22
2022-12-01T02:26:50.496Z,3.15
2022-12-01T02:30:01.490Z,3.22
2022-12-01T02:33:13.549Z,3.70
2022-12-01T02:36:38.361Z,3.97
2022-12-01T02:39:51.930Z,3.30
2022-12-01T02:43:21.186Z,4.60
2022-12-01T02:46:30.492Z,4.37
2022-12-01T02:49:37.503Z,4.47
2022-12-01T02:52:41.636Z,4.28
2022-12-01T02:55:53.031Z,5.00
2022-12-01T02:58:56.209Z,5.32
2022-12-01T03:02:08.991Z,5.10
2022-12-01T03:05:24.213Z,6.10
2022-12-01T03:08:35.716Z,5.55
2022-12-01T03:11:57.262Z,5.62
2022-12-01T03:15:51.456Z,6.25
2022-12-01T03:19:00.912Z,5.03
2022-12-01T03:22:27.354Z,5.05
2022-12-01T03:25:32.493Z,4.35
2022-12-01T03:28:40.632Z,5.10
2022-12-01T03:31:53.281Z,5.70
2022-12-01T03:35:01.704Z,4.95
2022-12-01T03:38:25.347Z,4.40
2022-12-01T03:41:51.835Z,5.28
2022-12-01T03:44:57.837Z,5.50
2022-12-01T03:48:01.360Z,5.60
2022-12-01T03:51:10.375Z,4.80
2022-12-01T03:54:43.286Z,5.07
2022-12-01T03:57:52.396Z,4.80
2022-12-01T04:00:57.746Z,5.28
2022-12-01T04:07:14.969Z,6.07
2022-12-01T04:10:18.529Z,6.53
2022-12-01T04:13:25.656Z,5.15
2022-12-01T04:16:28.628Z,5.47
2022-12-01T04:19:32.183Z,4.97
2022-12-01T04:22:35.269Z,4.93
2022-12-01T04:25:38.262Z,5.35
2022-12-01T04:28:41.274Z,5.20
2022-12-01T04:31:45.309Z,6.00
2022-12-01T04:34:48.537Z,6.72
2022-12-01T04:37:51.566Z,6.68
2022-12-01T04:40:55.447Z,6.53
2022-12-01T04:43:58.531Z,9.45
2022-12-01T04:47:02.124Z,8.52
2022-12-01T04:50:06.114Z,7.60
2022-12-01T04:53:09.907Z,8.05
2022-12-01T04:56:12.961Z,8.10
2022-12-01T04:59:17.390Z,8.07
2022-12-01T05:02:20.578Z,7.97
2022-12-01T05:05:24.281Z,7.10
2022-12-01T05:08:27.857Z,8.82
2022-12-01T05:11:32.592Z,7.78
2022-12-01T05:14:37.379Z,7.47
2022-12-01T05:17:42.413Z,8.05
2022-12-01T05:20:57.485Z,7.00
2022-12-01T05:24:00.874Z,7.03
2022-12-01T05:27:04.922Z,6.53
2022-12-01T05:30:09.076Z,7.47
2022-12-01T05:33:12.511Z,7.35
2022-12-01T05:36:16.880Z,7.93
2022-12-01T05:39:19.901Z,7.20
2022-12-01T05:42:24.268Z,7.20
2022-12-01T05:45:27.722Z,8.48
2022-12-01T05:48:31.353Z,8.15
2022-12-01T05:51:34.365Z,8.80
2022-12-01T05:54:40.902Z,9.05
2022-12-01T05:57:44.587Z,16.42
2022-12-01T06:00:48.208Z,11.93
2022-12-01T06:03:53.203Z,10.50
2022-12-01T06:06:56.389Z,8.63
2022-12-01T06:10:00.399Z,9.10
2022-12-01T06:13:03.336Z,9.10
2022-12-01T06:16:07.201Z,9.40
2022-12-01T06:19:10.576Z,8.60
2022-12-01T06:22:14.353Z,8.80
2022-12-01T06:25:17.781Z,9.02
2022-12-01T06:28:22.451Z,12.73
2022-12-01T06:31:27.152Z,16.52
2022-12-01T06:34:33.599Z,12.20
2022-12-01T06:37:38.098Z,10.20
2022-12-01T06:40:43.773Z,12.15
2022-12-01T06:43:46.692Z,11.93
2022-12-01T06:46:55.389Z,13.00
2022-12-01T06:49:58.513Z,12.05
2022-12-01T06:53:02.446Z,18.15
2022-12-01T06:56:06.474Z,14.75
2022-12-01T06:59:10.233Z,13.63
2022-12-01T07:02:13.669Z,13.75
2022-12-01T07:05:17.185Z,12.88
2022-12-01T07:08:20.287Z,14.30
2022-12-01T07:11:23.546Z,13.00
2022-12-01T07:14:27.454Z,11.60
2022-12-01T07:17:30.780Z,11.20
2022-12-01T07:20:34.204Z,9.35
2022-12-01T07:23:37.552Z,8.60
2022-12-01T07:26:41.349Z,9.32
2022-12-01T07:29:45.166Z,10.40
2022-12-01T07:32:48.878Z,12.45
2022-12-01T07:35:54.094Z,10.63
2022-12-01T07:38:57.189Z,11.50
2022-12-01T07:42:01.576Z,12.83
2022-12-01T07:45:05.096Z,13.27
2022-12-01T07:48:08.353Z,16.87
2022-12-01T07:51:16.936Z,15.73
2022-12-01T07:54:21.447Z,16.17
2022-12-01T07:57:24.990Z,16.15
2022-12-01T08:00:29.035Z,16.85
2022-12-01T08:03:32.662Z,17.10
2022-12-01T08:06:35.714Z,18.05
2022-12-01T08:09:38.982Z,16.23
2022-12-01T08:12:42.176Z,14.32
2022-12-01T08:15:45.280Z,15.27
2022-12-01T08:18:48.535Z,15.25
2022-12-01T08:21:52.259Z,14.40
2022-12-01T08:24:55.337Z,15.45
2022-12-01T08:28:00.786Z,13.68
2022-12-01T08:31:12.431Z,12.70
2022-12-01T08:34:15.649Z,13.23
2022-12-01T08:37:18.686Z,15.32
2022-12-01T08:40:22.510Z,14.00
2022-12-01T08:43:55.998Z,14.10
2022-12-01T08:46:50.197Z,14.43
2022-12-01T08:49:53.506Z,12.80
2022-12-01T08:52:56.707Z,13.77
2022-12-01T08:56:05.552Z,15.32
2022-12-01T08:59:09.350Z,14.32
2022-12-01T09:02:16.621Z,15.35
2022-12-01T09:05:20.249Z,14.52
2022-12-01T09:08:32.266Z,14.57
2022-12-01T09:11:36.124Z,15.65
2022-12-01T09:14:41.007Z,16.15
2022-12-01T09:17:44.552Z,16.37
2022-12-01T09:20:48.066Z,16.27
2022-12-01T09:23:52.086Z,16.77
2022-12-01T09:26:56.645Z,16.85
2022-12-01T09:30:00.102Z,16.55
2022-12-01T09:33:03.137Z,16.62
2022-12-01T09:36:08.713Z,16.60
2022-12-01T09:39:14.632Z,16.37
2022-12-01T09:42:22.446Z,14.73
2022-12-01T09:45:28.293Z,13.68
2022-12-01T09:48:44.161Z,13.45
2022-12-01T09:51:47.116Z,13.85
2022-12-01T09:54:50.897Z,15.30
2022-12-01T09:57:56.558Z,14.35
2022-12-01T10:01:00.793Z,16.30
2022-12-01T10:04:25.482Z,23.40
2022-12-01T10:07:40.618Z,19.15
2022-12-01T10:10:49.432Z,16.62
2022-12-01T10:13:52.580Z,17.12
2022-12-01T10:17:11.072Z,16.98
2022-12-01T10:20:20.059Z,14.18
2022-12-01T10:24:03.417Z,14.98
2022-12-01T10:27:19.407Z,13.52
2022-12-01T10:30:24.264Z,12.18
2022-12-01T10:33:34.534Z,12.88
2022-12-01T10:36:37.842Z,11.77
2022-12-01T10:39:43.956Z,9.80
2022-12-01T10:42:51.085Z,12.10
2022-12-01T10:45:54.717Z,13.55
2022-12-01T10:48:59.707Z,12.60
2022-12-01T10:52:02.796Z,12.48
2022-12-01T10:55:25.019Z,12.63
2022-12-01T10:58:29.229Z,11.98
2022-12-01T11:01:36.115Z,11.18
2022-12-01T11:04:47.255Z,10.45
2022-12-01T11:07:50.758Z,11.75
2022-12-01T11:10:55.257Z,10.75
2022-12-01T11:14:01.499Z,10.38
2022-12-01T11:17:23.040Z,10.57
2022-12-01T11:20:38.610Z,9.85
2022-12-01T11:23:47.096Z,10.98
2022-12-01T11:26:51.053Z,11.35
2022-12-01T11:30:00.749Z,11.77
2022-12-01T11:33:05.935Z,10.75
2022-12-01T11:36:16.050Z,10.63
2022-12-01T11:39:29.015Z,10.20
2022-12-01T11:42:34.495Z,9.18
2022-12-01T11:45:40.315Z,10.25
2022-12-01T11:48:58.131Z,10.27
2022-12-01T11:52:17.480Z,9.65
2022-12-01T11:55:25.925Z,9.80
2022-12-01T11:58:29.257Z,10.18
2022-12-01T12:01:35.404Z,9.75
2022-12-01T12:04:57.168Z,9.88
2022-12-01T12:08:09.787Z,11.50
2022-12-01T12:11:22.135Z,10.38
2022-12-01T12:14:37.255Z,9.25
2022-12-01T12:18:10.186Z,9.93
2022-12-01T12:21:34.048Z,10.02
2022-12-01T12:24:46.579Z,11.12
2022-12-01T12:28:08.408Z,10.40
2022-12-01T12:31:22.277Z,10.93
2022-12-01T12:34:28.417Z,11.65
2022-12-01T12:37:41.421Z,11.73
2022-12-01T12:40:50.271Z,11.10
2022-12-01T12:44:24.223Z,11.45
2022-12-01T12:47:49.923Z,10.65
2022-12-01T12:50:59.909Z,11.80
2022-12-01T12:54:12.552Z,11.27
2022-12-01T12:57:30.324Z,9.70
2022-12-01T13:00:34.172Z,10.88
2022-12-01T13:03:53.433Z,9.83
2022-12-01T13:07:14.279Z,10.73
2022-12-01T13:10:24.120Z,10.98
2022-12-01T13:14:10.568Z,11.20
2022-12-01T13:17:20.018Z,9.85
2022-12-01T13:20:27.773Z,11.35
2022-12-01T13:23:31.104Z,11.23
2022-12-01T13:26:36.631Z,11.25
2022-12-01T13:29:48.404Z,11.68
2022-12-01T13:32:59.963Z,12.15
2022-12-01T13:36:44.734Z,11.82
2022-12-01T13:39:36.503Z,11.75
2022-12-01T13:42:40.666Z,11.12
2022-12-01T13:45:43.886Z,10.38
2022-12-01T13:48:47.018Z,12.65
2022-12-01T13:52:19.369Z,11.15
2022-12-01T13:55:29.008Z,11.15
2022-12-01T13:58:34.949Z,10.70
2022-12-01T14:01:46.561Z,11.10
2022-12-01T14:04:50.274Z,12.23
2022-12-01T14:07:54.535Z,11.07
2022-12-01T14:11:04.473Z,12.37
2022-12-01T14:14:13.594Z,12.65
2022-12-01T14:17:35.449Z,13.52
2022-12-01T14:20:46.139Z,12.40
2022-12-01T14:24:01.474Z,12.65
2022-12-01T14:27:05.934Z,14.02
2022-12-01T14:30:41.280Z,13.27
2022-12-01T14:33:49.491Z,13.13
2022-12-01T14:36:56.147Z,12.20
2022-12-01T14:40:04.438Z,13.55
2022-12-01T14:43:31.085Z,13.93
2022-12-01T14:46:52.124Z,14.40
2022-12-01T14:49:58.618Z,14.10
2022-12-01T14:53:26.266Z,13.70
2022-12-01T14:59:34.406Z,14.85
2022-12-01T15:02:41.804Z,14.13
2022-12-01T15:05:45.151Z,13.75
2022-12-01T15:12:33.908Z,17.87
2022-12-01T15:15:37.864Z,23.02
2022-12-01T15:18:40.946Z,17.33
2022-12-01T15:21:44.242Z,16.45
2022-12-01T15:24:47.548Z,16.20
2022-12-01T15:28:13.772Z,16.12
2022-12-01T15:31:17.074Z,16.00
2022-12-01T15:34:25.090Z,16.58
2022-12-01T15:37:30.760Z,15.88
2022-12-01T15:44:05.628Z,23.55
2022-12-01T15:47:31.418Z,20.75
2022-12-01T15:50:46.254Z,16.00
2022-12-01T15:53:54.183Z,14.07
2022-12-01T15:56:59.267Z,14.95
2022-12-01T16:03:15.293Z,15.45
2022-12-01T16:06:23.304Z,15.75
2022-12-01T16:09:36.701Z,22.42
2022-12-01T16:12:40.609Z,23.42
2022-12-01T16:15:44.351Z,15.93
2022-12-01T16:19:08.139Z,27.90
2022-12-01T16:22:10.932Z,21.45
2022-12-01T16:25:39.362Z,20.98
2022-12-01T16:28:42.441Z,29.58
2022-12-01T16:32:12.728Z,29.60
2022-12-01T16:35:30.519Z,29.63
2022-12-01T16:38:34.662Z,25.58
2022-12-01T16:41:45.084Z,21.15
2022-12-01T16:44:50.022Z,17.65
2022-12-01T16:47:53.489Z,19.42
2022-12-01T16:50:57.389Z,29.30
2022-12-01T16:54:00.675Z,21.50
2022-12-01T16:57:05.976Z,20.60
2022-12-01T17:00:09.653Z,21.70
2022-12-01T17:03:17.214Z,42.13
2022-12-01T17:06:20.761Z,29.65
2022-12-01T17:09:24.006Z,33.92
2022-12-01T17:12:27.065Z,26.48
2022-12-01T17:15:30.493Z,24.70
2022-12-01T17:18:36.079Z,30.40
2022-12-01T17:21:40.737Z,42.78
2022-12-01T17:24:43.685Z,36.47
2022-12-01T17:27:47.640Z,23.38
2022-12-01T17:30:53.650Z,19.92
2022-12-01T17:33:58.331Z,19.10
2022-12-01T17:37:02.646Z,19.70
2022-12-01T17:40:07.492Z,21.70
2022-12-01T17:43:10.793Z,23.67
2022-12-01T17:46:16.018Z,24.87
2022-12-01T17:49:19.725Z,21.37
2022-12-01T17:52:28.042Z,19.58
2022-12-01T17:55:31.464Z,15.70
2022-12-01T17:58:35.368Z,17.55
2022-12-01T18:01:38.853Z,29.23
2022-12-01T18:04:42.709Z,28.70
2022-12-01T18:07:45.961Z,23.20
2022-12-01T18:10:49.522Z,21.10
2022-12-01T18:13:53.566Z,18.85
2022-12-01T18:16:57.072Z,20.30
2022-12-01T18:20:00.611Z,23.92
2022-12-01T18:23:04.607Z,30.85
2022-12-01T18:26:16.191Z,24.90
2022-12-01T18:29:29.614Z,20.33
2022-12-01T18:32:33.082Z,22.05
2022-12-01T18:35:41.983Z,25.67
2022-12-01T18:38:47.758Z,40.08
2022-12-01T18:41:52.308Z,70.20
2022-12-01T18:44:57.005Z,53.25
2022-12-01T18:48:03.544Z,25.45
2022-12-01T18:51:08.439Z,22.60
2022-12-01T18:54:14.539Z,23.05
2022-12-01T18:57:19.677Z,24.00
2022-12-01T19:00:23.725Z,24.73
2022-12-01T19:03:32.385Z,19.70
2022-12-01T19:06:38.299Z,17.85
2022-12-01T19:09:42.247Z,16.60
2022-12-01T19:12:46.968Z,16.05
2022-12-01T19:15:50.626Z,15.98
2022-12-01T19:18:55.782Z,15.85
2022-12-01T19:21:59.547Z,15.95
2022-12-01T19:25:04.782Z,17.02
2022-12-01T19:28:10.838Z,16.70
2022-12-01T19:31:17.822Z,19.80
2022-12-01T19:34:21.548Z,20.40
2022-12-01T19:37:25.891Z,19.10
2022-12-01T19:40:29.314Z,19.55
2022-12-01T19:43:35.250Z,16.90
2022-12-01T19:46:39.153Z,19.15
2022-12-01T19:49:52.308Z,31.00
2022-12-01T19:52:55.890Z,30.65
2022-12-01T19:56:03.662Z,25.83
2022-12-01T19:59:08.578Z,18.85
2022-12-01T20:02:13.975Z,21.45
2022-12-01T20:05:17.710Z,20.85
2022-12-01T20:08:21.407Z,19.10
2022-12-01T20:11:26.682Z,17.83
2022-12-01T20:14:30.628Z,18.42
2022-12-01T20:17:37.225Z,16.48
2022-12-01T20:20:40.673Z,19.48
2022-12-01T20:23:48.966Z,19.62
2022-12-01T20:26:57.011Z,18.05
2022-12-01T20:30:00.390Z,19.62
2022-12-01T20:33:03.910Z,17.10
2022-12-01T20:36:08.553Z,15.48
2022-12-01T20:39:12.949Z,17.35
2022-12-01T20:42:19.311Z,19.83
2022-12-01T20:45:24.064Z,18.08
2022-12-01T20:48:28.250Z,18.08
2022-12-01T20:51:35.205Z,17.02
2022-12-01T20:54:39.409Z,18.17
2022-12-01T20:57:44.494Z,17.92
2022-12-01T21:00:49.305Z,17.98
2022-12-01T21:03:52.808Z,17.25
2022-12-01T21:06:59.160Z,15.85
2022-12-01T21:10:03.216Z,15.52
2022-12-01T21:16:48.324Z,15.57
2022-12-01T21:20:05.524Z,17.45
2022-12-01T21:23:13.666Z,16.87
2022-12-01T21:26:17.451Z,17.45
2022-12-01T21:29:23.195Z,16.50
2022-12-01T21:32:31.895Z,16.08
2022-12-01T21:35:35.034Z,16.55
2022-12-01T21:38:38.424Z,21.48
2022-12-01T21:41:41.613Z,24.75
2022-12-01T21:44:45.694Z,28.85
2022-12-01T21:47:48.704Z,26.58
2022-12-01T21:51:05.243Z,23.55
2022-12-01T21:54:13.883Z,21.75
2022-12-01T21:57:46.256Z,19.80
2022-12-01T22:00:49.394Z,18.17
2022-12-01T22:03:54.902Z,19.98
2022-12-01T22:07:01.447Z,21.27
2022-12-01T22:10:43.299Z,16.87
2022-12-01T22:14:10.003Z,16.30
2022-12-01T22:17:21.126Z,15.02
2022-12-01T22:20:24.327Z,16.15
2022-12-01T22:23:34.212Z,16.75
2022-12-01T22:26:40.395Z,16.75
2022-12-01T22:29:45.962Z,18.52
2022-12-01T22:33:00.269Z,17.35
2022-12-01T22:36:23.065Z,16.33
2022-12-01T22:39:34.414Z,15.50
2022-12-01T22:42:38.115Z,17.60
2022-12-01T22:45:43.684Z,16.55
2022-12-01T22:48:50.705Z,18.02
2022-12-01T22:52:03.790Z,16.52
2022-12-01T22:55:15.795Z,17.45
2022-12-01T22:58:28.603Z,17.52
2022-12-01T23:01:34.135Z,16.12
2022-12-01T23:04:42.475Z,15.98
2022-12-01T23:07:46.282Z,16.33
2022-12-01T23:10:50.093Z,15.55
2022-12-01T23:13:53.944Z,15.40
2022-12-01T23:17:08.529Z,14.85
2022-12-01T23:20:15.434Z,16.23
2022-12-01T23:23:27.373Z,16.15
2022-12-01T23:26:31.266Z,16.67
2022-12-01T23:29:35.098Z,15.55
2022-12-01T23:32:38.899Z,16.67
2022-12-01T23:35:54.980Z,17.85
2022-12-01T23:39:01.883Z,15.90
2022-12-01T23:42:06.586Z,14.90
2022-12-01T23:45:22.868Z,14.38
2022-12-01T23:48:33.319Z,13.70
2022-12-01T23:51:57.622Z,13.52
2022-12-01T23:55:08.017Z,13.82
2022-12-01T23:58:13.830Z,14.93
